Time;durP1;ratioP1;P1;durP2;ratioP2;P2;SDS_P1;SDS_P2;PMS_P1;PMS_P2;Temp;Humidity;BMP_temperature;BMP_pressure;BME280_temperature;BME280_humidity;BME280_pressure;Samples;Min_cycle;Max_cycle;Signal;HPM_P1;HPM_P2
2024/03/29 00:01:16;;;;;;;1.75;1.65;;;8.50;95.80;;;;;;5004688;28;20049;-73
2024/03/29 00:03:43;;;;;;;2.22;1.42;;;8.50;95.90;;;;;;4996508;28;20038;-72
2024/03/29 00:06:09;;;;;;;3.08;1.50;;;8.50;95.80;;;;;;5012934;28;20053;-72
2024/03/29 00:08:35;;;;;;;2.53;1.52;;;8.50;95.80;;;;;;4993209;28;20134;-72
2024/03/29 00:11:01;;;;;;;4.03;1.63;;;8.50;95.80;;;;;;4993324;28;20042;-72
2024/03/29 00:13:27;;;;;;;4.50;1.70;;;8.50;95.70;;;;;;4993174;28;20043;-73
2024/03/29 00:15:53;;;;;;;1.60;1.50;;;8.50;95.80;;;;;;4961042;28;20097;-72
2024/03/29 00:18:19;;;;;;;3.70;1.70;;;8.50;95.80;;;;;;4993196;28;20044;-72
2024/03/29 00:20:45;;;;;;;4.85;1.25;;;8.50;96.10;;;;;;4993434;28;20072;-72
2024/03/29 00:23:11;;;;;;;1.10;0.57;;;8.50;95.80;;;;;;4993143;28;20042;-72
2024/03/29 00:25:37;;;;;;;2.00;1.50;;;8.50;95.80;;;;;;4993212;28;20077;-73
2024/03/29 00:28:03;;;;;;;1.60;1.50;;;8.50;95.80;;;;;;4993445;28;20046;-72
2024/03/29 00:30:29;;;;;;;9.65;1.30;;;8.50;95.80;;;;;;4992901;28;20065;-72
2024/03/29 00:32:55;;;;;;;2.47;1.65;;;8.60;95.90;;;;;;4993031;28;20038;-72
2024/03/29 00:35:22;;;;;;;4.55;1.95;;;8.40;95.90;;;;;;4992654;28;20054;-72
2024/03/29 00:37:49;;;;;;;5.20;1.90;;;8.40;95.90;;;;;;4976862;28;20057;-72
2024/03/29 00:40:16;;;;;;;6.28;2.47;;;8.30;95.80;;;;;;4992793;28;20097;-72
2024/03/29 00:42:42;;;;;;;3.65;1.20;;;8.40;95.90;;;;;;4992945;28;20038;-73
2024/03/29 00:45:08;;;;;;;2.35;1.20;;;8.40;95.90;;;;;;4993016;28;20129;-72
2024/03/29 00:47:34;;;;;;;2.20;0.93;;;8.40;95.90;;;;;;4992530;28;20038;-72
2024/03/29 00:50:00;;;;;;;3.88;1.33;;;8.40;95.90;;;;;;4992699;28;20089;-72
2024/03/29 00:52:26;;;;;;;1.02;0.90;;;8.40;95.90;;;;;;4992546;28;20042;-72
2024/03/29 00:54:52;;;;;;;2.53;1.63;;;8.60;95.90;;;;;;4992620;28;20042;-72
2024/03/29 00:57:19;;;;;;;2.33;1.23;;;8.40;95.80;;;;;;4992376;28;20062;-72
2024/03/29 00:59:46;;;;;;;1.88;1.23;;;8.50;95.70;;;;;;4976462;28;20050;-72
2024/03/29 01:02:12;;;;;;;1.05;0.80;;;8.50;95.70;;;;;;4992566;28;20496;-72
2024/03/29 01:04:40;;;;;;;4.45;1.02;;;8.50;95.80;;;;;;4976078;28;20057;-72
2024/03/29 01:07:06;;;;;;;3.72;1.30;;;8.40;95.70;;;;;;4992523;28;20177;-72
2024/03/29 01:09:32;;;;;;;1.77;0.98;;;8.50;95.90;;;;;;4992250;28;20058;-72
2024/03/29 01:11:58;;;;;;;4.53;1.85;;;8.40;95.80;;;;;;4992452;28;20041;-73
2024/03/29 01:14:24;;;;;;;2.75;1.20;;;8.40;95.80;;;;;;4991973;28;20086;-72
2024/03/29 01:16:50;;;;;;;4.00;1.23;;;8.40;95.80;;;;;;4992356;28;20049;-72
2024/03/29 01:19:16;;;;;;;3.30;1.15;;;8.40;95.70;;;;;;4992220;28;20042;-73
2024/03/29 01:21:42;;;;;;;2.75;1.20;;;8.50;95.80;;;;;;4992111;28;20049;-72
2024/03/29 01:24:08;;;;;;;2.17;1.27;;;8.40;95.80;;;;;;4992078;28;20076;-72
2024/03/29 01:26:34;;;;;;;1.95;1.17;;;8.40;95.80;;;;;;4991989;28;20050;-72
2024/03/29 01:29:00;;;;;;;4.55;1.50;;;8.40;95.90;;;;;;4992103;28;20038;-72
2024/03/29 01:31:26;;;;;;;5.47;1.60;;;8.40;95.90;;;;;;4991753;28;20088;-73
2024/03/29 01:33:55;;;;;;;3.03;0.80;;;8.30;95.90;;;;;;4992110;28;20468;-72
2024/03/29 01:36:22;;;;;;;2.25;1.65;;;8.30;95.90;;;;;;4991972;28;20058;-72
2024/03/29 01:38:49;;;;;;;1.67;1.23;;;8.40;96.00;;;;;;4975822;28;20112;-72
2024/03/29 01:41:15;;;;;;;1.88;1.10;;;8.30;96.00;;;;;;4992252;28;20048;-72
2024/03/29 01:43:41;;;;;;;1.67;1.23;;;8.40;96.10;;;;;;4991670;28;20043;-72
2024/03/29 01:46:07;;;;;;;1.92;1.10;;;8.40;96.00;;;;;;4991787;28;20448;-72
2024/03/29 01:48:34;;;;;;;3.00;1.95;;;8.40;96.00;;;;;;4991957;28;20061;-73
2024/03/29 01:51:01;;;;;;;1.60;1.30;;;8.40;95.90;;;;;;4991875;28;20042;-72
2024/03/29 01:53:28;;;;;;;3.75;1.40;;;8.40;95.90;;;;;;4991745;28;20050;-73
2024/03/29 01:55:54;;;;;;;3.70;1.50;;;8.40;95.70;;;;;;4991779;28;20054;-72
2024/03/29 01:58:21;;;;;;;2.45;0.93;;;8.50;95.70;;;;;;4991583;28;20085;-72
2024/03/29 02:00:57;;;;;;;1.00;0.82;;;8.50;95.70;;;;;;4991607;28;20046;-72
2024/03/29 02:03:24;;;;;;;3.75;1.35;;;8.50;95.60;;;;;;4991566;28;20046;-72
2024/03/29 02:05:50;;;;;;;2.58;1.00;;;8.50;95.60;;;;;;4991489;28;20038;-72
2024/03/29 02:08:17;;;;;;;3.33;0.98;;;8.40;95.70;;;;;;4994185;28;20049;-72
2024/03/29 02:10:45;;;;;;;2.47;1.42;;;8.50;95.70;;;;;;4995553;28;20512;-73
2024/03/29 02:13:11;;;;;;;1.88;1.38;;;8.40;95.80;;;;;;4995625;28;20050;-72
2024/03/29 02:15:39;;;;;;;1.33;0.73;;;8.40;95.90;;;;;;4979214;28;20050;-73
2024/03/29 02:18:06;;;;;;;2.60;1.17;;;8.30;95.90;;;;;;4979333;28;20053;-72
2024/03/29 02:20:33;;;;;;;3.47;0.75;;;8.30;96.00;;;;;;4995448;28;20093;-72
2024/03/29 02:23:15;;;;;;;1.35;0.90;;;8.20;96.10;;;;;;4995583;28;20066;-72
2024/03/29 02:25:42;;;;;;;2.45;2.20;;;8.20;96.30;;;;;;4995273;28;20049;-72
2024/03/29 02:28:08;;;;;;;1.42;0.93;;;8.10;96.40;;;;;;4995409;28;20508;-72
2024/03/29 02:30:34;;;;;;;3.58;0.73;;;8.00;96.40;;;;;;4978994;28;20046;-72
2024/03/29 02:33:00;;;;;;;2.97;0.82;;;8.00;96.50;;;;;;4995284;28;20118;-72
2024/03/29 02:35:27;;;;;;;2.70;1.10;;;7.90;96.60;;;;;;4995147;28;20054;-72
2024/03/29 02:37:53;;;;;;;2.88;0.70;;;7.90;96.70;;;;;;4995227;28;20042;-72
2024/03/29 02:40:19;;;;;;;2.13;1.08;;;7.90;96.70;;;;;;4995166;28;20057;-72
2024/03/29 02:42:47;;;;;;;3.10;1.10;;;7.90;96.70;;;;;;4994863;28;20496;-72
2024/03/29 02:45:14;;;;;;;1.02;0.80;;;7.90;96.70;;;;;;4995023;28;20480;-72
2024/03/29 02:47:40;;;;;;;2.67;1.20;;;7.90;96.70;;;;;;4995150;28;20424;-72
2024/03/29 02:50:09;;;;;;;3.80;1.13;;;7.90;96.70;;;;;;4995104;28;20129;-72
2024/03/29 02:52:35;;;;;;;3.35;1.67;;;7.90;96.70;;;;;;4994822;28;20069;-72
2024/03/29 02:55:01;;;;;;;2.50;1.50;;;7.90;96.70;;;;;;4995028;28;20146;-72
2024/03/29 02:57:27;;;;;;;1.75;1.42;;;7.90;96.60;;;;;;4994961;28;20049;-72
2024/03/29 02:59:53;;;;;;;2.35;1.10;;;8.00;96.60;;;;;;4994538;28;20058;-72
2024/03/29 03:02:19;;;;;;;1.85;0.82;;;8.00;96.40;;;;;;4994840;28;20054;-72
2024/03/29 03:04:45;;;;;;;3.85;0.70;;;8.00;96.40;;;;;;4994524;28;20092;-72
2024/03/29 03:12:39;;;;;;;6.97;1.23;;;8.10;96.50;;;;;;4994346;28;20057;-72
2024/03/29 03:15:06;;;;;;;3.60;0.90;;;8.10;96.30;;;;;;4994560;28;20070;-72
2024/03/29 03:17:32;;;;;;;1.38;0.55;;;8.10;96.40;;;;;;4994523;28;20491;-73
2024/03/29 03:19:58;;;;;;;2.38;0.75;;;8.10;96.40;;;;;;4993552;28;20054;-72
2024/03/29 03:22:24;;;;;;;4.60;1.77;;;8.00;96.30;;;;;;4994491;28;20050;-72
2024/03/29 03:24:50;;;;;;;2.00;1.10;;;8.00;96.30;;;;;;4994130;28;20049;-72
2024/03/29 03:27:16;;;;;;;2.03;1.10;;;8.20;96.30;;;;;;4994281;28;20082;-73
2024/03/29 03:29:42;;;;;;;2.38;1.73;;;8.10;96.30;;;;;;4994114;28;20097;-72
2024/03/29 03:32:08;;;;;;;3.88;1.92;;;8.00;96.10;;;;;;4994540;28;20042;-72
2024/03/29 03:34:34;;;;;;;3.97;1.33;;;8.10;96.20;;;;;;4993807;28;20101;-72
2024/03/29 03:37:00;;;;;;;1.83;1.25;;;8.10;96.30;;;;;;4994276;28;20045;-72
2024/03/29 03:39:26;;;;;;;2.53;1.20;;;8.10;96.20;;;;;;4994187;28;20034;-73
2024/03/29 03:41:52;;;;;;;1.85;1.75;;;8.10;96.10;;;;;;4993919;28;20046;-73
2024/03/29 03:44:19;;;;;;;6.38;1.15;;;8.10;96.20;;;;;;4993896;28;20043;-72
2024/03/29 03:46:44;;;;;;;3.05;1.50;;;8.10;96.10;;;;;;4993797;28;20070;-72
2024/03/29 03:49:10;;;;;;;2.88;1.50;;;8.20;96.10;;;;;;4993893;28;20034;-72
2024/03/29 03:51:36;;;;;;;3.75;1.25;;;8.20;96.10;;;;;;4993852;28;20084;-72
2024/03/29 03:54:02;;;;;;;3.40;1.00;;;8.20;95.90;;;;;;4993974;28;20400;-72
2024/03/29 03:56:28;;;;;;;3.83;0.85;;;8.20;95.90;;;;;;4993801;28;20038;-73
2024/03/29 03:58:54;;;;;;;3.90;1.80;;;8.30;96.10;;;;;;4993543;28;20488;-72
2024/03/29 04:01:21;;;;;;;3.03;1.02;;;8.20;96.00;;;;;;4990590;28;20400;-72
2024/03/29 04:03:47;;;;;;;2.05;1.77;;;8.30;96.10;;;;;;4993236;28;20488;-73
2024/03/29 04:06:12;;;;;;;4.10;0.75;;;8.20;96.20;;;;;;4991562;28;20054;-73
2024/03/29 04:08:38;;;;;;;0.73;0.73;;;8.20;96.30;;;;;;4961392;28;20062;-72
2024/03/29 04:11:04;;;;;;;2.28;1.35;;;8.20;96.20;;;;;;4977434;28;20041;-72
2024/03/29 04:13:31;;;;;;;3.03;1.25;;;8.20;96.20;;;;;;4993434;28;20101;-73
2024/03/29 04:16:04;;;;;;;2.40;1.30;;;8.10;96.30;;;;;;4977145;28;20038;-72
2024/03/29 04:18:30;;;;;;;2.85;1.60;;;8.20;96.30;;;;;;4977307;28;20047;-72
2024/03/29 04:21:03;;;;;;;2.10;1.23;;;8.20;96.40;;;;;;5010013;28;20045;-73
2024/03/29 04:23:30;;;;;;;2.88;1.52;;;8.10;96.30;;;;;;4993396;28;20050;-72
2024/03/29 04:25:57;;;;;;;1.40;1.08;;;8.10;96.30;;;;;;5009305;28;20447;-72
2024/03/29 04:28:24;;;;;;;3.38;1.08;;;8.10;96.30;;;;;;4977019;28;20097;-72
2024/03/29 04:30:58;;;;;;;4.65;2.10;;;8.10;96.20;;;;;;4992469;28;20052;-72
2024/03/29 04:33:24;;;;;;;3.92;1.80;;;8.20;96.10;;;;;;4993035;28;20042;-72
2024/03/29 04:36:02;;;;;;;2.35;1.10;;;8.20;96.00;;;;;;5009094;28;20046;-73
2024/03/29 04:38:29;;;;;;;2.08;1.40;;;8.30;96.00;;;;;;4993038;28;20046;-72
2024/03/29 04:40:57;;;;;;;2.75;1.15;;;8.30;96.00;;;;;;4976611;28;20136;-73
2024/03/29 04:43:24;;;;;;;2.92;1.73;;;8.30;95.90;;;;;;4992843;28;20046;-72
2024/03/29 04:45:50;;;;;;;1.08;0.98;;;8.30;96.00;;;;;;4992611;28;20038;-72
2024/03/29 04:48:17;;;;;;;1.65;1.40;;;8.40;96.00;;;;;;4960543;28;20496;-72
2024/03/29 04:50:43;;;;;;;3.40;1.80;;;8.40;95.80;;;;;;4992741;28;20051;-72
2024/03/29 04:53:09;;;;;;;3.72;1.40;;;8.40;95.70;;;;;;4992561;28;20057;-72
2024/03/29 04:55:39;;;;;;;2.15;1.42;;;8.40;95.90;;;;;;4976628;28;20122;-72
2024/03/29 04:58:05;;;;;;;3.90;1.75;;;8.40;95.70;;;;;;4992568;28;20042;-72
2024/03/29 05:00:31;;;;;;;2.35;1.48;;;8.50;95.80;;;;;;4992645;28;20058;-72
2024/03/29 05:02:57;;;;;;;1.75;1.17;;;8.50;95.60;;;;;;4992440;28;20437;-72
2024/03/29 05:05:23;;;;;;;4.18;1.65;;;8.50;95.60;;;;;;4976467;28;20192;-72
2024/03/29 05:07:49;;;;;;;3.55;1.77;;;8.50;95.60;;;;;;4976111;28;20039;-73
2024/03/29 05:10:16;;;;;;;3.00;1.40;;;8.50;95.50;;;;;;4992483;28;20230;-73
2024/03/29 05:12:42;;;;;;;2.90;1.80;;;8.50;95.60;;;;;;4992415;28;20046;-72
2024/03/29 05:15:08;;;;;;;4.97;2.22;;;8.60;95.60;;;;;;4992242;28;20118;-72
2024/03/29 05:17:36;;;;;;;5.60;2.35;;;8.60;95.50;;;;;;4976298;28;20050;-73
2024/03/29 05:20:02;;;;;;;1.45;0.75;;;8.70;95.60;;;;;;4960090;28;20042;-72
2024/03/29 05:22:28;;;;;;;3.15;1.20;;;8.60;95.70;;;;;;4976154;28;20046;-72
2024/03/29 05:24:54;;;;;;;3.60;3.28;;;8.60;95.70;;;;;;4991934;28;20038;-72
2024/03/29 05:27:20;;;;;;;2.85;1.65;;;8.60;95.70;;;;;;4976058;28;20038;-72
2024/03/29 05:29:46;;;;;;;2.78;1.85;;;8.60;95.60;;;;;;4992476;28;20043;-73
2024/03/29 05:32:13;;;;;;;2.85;1.70;;;8.60;95.70;;;;;;4991954;28;20480;-72
2024/03/29 05:34:39;;;;;;;3.00;1.23;;;8.60;95.50;;;;;;4959810;28;20057;-72
2024/03/29 05:37:05;;;;;;;2.42;1.52;;;8.70;95.60;;;;;;4975874;28;20038;-72
2024/03/29 05:39:31;;;;;;;2.17;1.25;;;8.70;95.60;;;;;;4992095;28;20046;-72
2024/03/29 05:41:58;;;;;;;2.45;0.93;;;8.70;95.50;;;;;;4975084;28;20057;-73
2024/03/29 05:44:24;;;;;;;3.20;1.48;;;8.80;95.60;;;;;;4976006;28;20042;-72
2024/03/29 05:46:50;;;;;;;4.70;1.98;;;8.80;95.40;;;;;;4991938;28;20106;-72
2024/03/29 05:49:16;;;;;;;1.15;1.05;;;8.80;95.50;;;;;;4991624;28;20444;-73
2024/03/29 05:51:42;;;;;;;1.90;1.70;;;8.80;95.30;;;;;;4991839;28;20049;-72
2024/03/29 05:54:08;;;;;;;0.95;0.60;;;9.00;95.30;;;;;;4991642;28;20404;-72
2024/03/29 05:56:34;;;;;;;1.02;0.77;;;9.00;95.30;;;;;;4991832;28;20105;-73
2024/03/29 05:59:00;;;;;;;2.17;2.00;;;9.00;95.30;;;;;;4991565;28;20038;-73
2024/03/29 06:01:26;;;;;;;3.38;1.30;;;9.00;95.20;;;;;;4979989;28;20121;-73
2024/03/29 06:03:54;;;;;;;4.00;1.60;;;9.10;95.20;;;;;;5010926;28;20049;-73
2024/03/29 06:06:24;;;;;;;1.98;0.90;;;9.20;95.10;;;;;;5010739;28;20042;-73
2024/03/29 06:08:51;;;;;;;3.22;1.05;;;9.30;95.20;;;;;;5011073;28;20041;-73
2024/03/29 06:11:17;;;;;;;1.05;0.80;;;9.30;95.20;;;;;;5010940;28;20487;-72
2024/03/29 06:19:11;;;;;;;1.52;1.20;;;9.50;95.00;;;;;;5010602;28;20072;-72
2024/03/29 06:21:40;;;;;;;0.50;0.45;;;9.50;95.10;;;;;;4995104;28;20050;-72
2024/03/29 06:24:07;;;;;;;1.30;1.20;;;9.60;95.20;;;;;;5010826;28;20046;-72
2024/03/29 06:26:34;;;;;;;1.33;1.13;;;9.60;95.00;;;;;;5010958;28;20034;-72
2024/03/29 06:29:01;;;;;;;1.45;1.23;;;9.60;95.10;;;;;;4994559;28;20034;-72
2024/03/29 06:31:27;;;;;;;2.42;1.10;;;9.60;95.10;;;;;;5011066;28;20104;-72
2024/03/29 06:33:54;;;;;;;2.85;1.40;;;9.60;95.30;;;;;;5010981;28;20045;-72
2024/03/29 06:36:20;;;;;;;3.00;1.30;;;9.60;95.40;;;;;;4994487;28;20069;-72
2024/03/29 06:38:46;;;;;;;2.40;1.67;;;9.60;95.60;;;;;;5010980;28;20038;-72
2024/03/29 06:41:12;;;;;;;2.38;0.70;;;9.60;95.70;;;;;;5010782;28;20046;-72
2024/03/29 06:43:43;;;;;;;1.67;0.77;;;9.60;95.80;;;;;;4994460;28;20395;-72
2024/03/29 06:46:09;;;;;;;2.53;1.40;;;9.60;96.00;;;;;;5010640;28;20100;-72
2024/03/29 06:48:35;;;;;;;1.67;0.80;;;9.60;96.30;;;;;;5011162;28;20046;-72
2024/03/29 06:51:02;;;;;;;1.05;0.70;;;9.60;96.50;;;;;;5010775;28;20042;-72
2024/03/29 06:53:29;;;;;;;1.45;1.30;;;9.60;96.80;;;;;;4995520;28;20471;-72
2024/03/29 06:55:56;;;;;;;2.92;0.47;;;9.60;97.00;;;;;;5014542;28;20049;-72
2024/03/29 06:58:23;;;;;;;2.40;1.27;;;9.60;97.10;;;;;;4998006;28;20038;-72
2024/03/29 07:00:50;;;;;;;1.80;1.60;;;9.60;97.30;;;;;;4981832;28;20049;-72
2024/03/29 07:03:19;;;;;;;1.92;1.27;;;9.50;97.80;;;;;;5014314;28;20051;-72
2024/03/29 07:05:46;;;;;;;2.40;0.90;;;9.50;98.10;;;;;;4997734;28;20050;-72
2024/03/29 07:08:12;;;;;;;3.50;1.48;;;9.50;98.30;;;;;;4981537;28;20046;-72
2024/03/29 07:10:38;;;;;;;1.50;1.15;;;9.50;98.60;;;;;;5014268;28;20522;-74
2024/03/29 07:13:07;;;;;;;2.92;1.40;;;9.50;98.80;;;;;;4997672;28;20096;-72
2024/03/29 07:15:33;;;;;;;2.00;1.02;;;9.30;99.10;;;;;;4997652;28;20054;-72
2024/03/29 07:18:00;;;;;;;2.47;1.20;;;9.30;99.30;;;;;;4997835;28;20038;-72
2024/03/29 07:20:26;;;;;;;1.50;1.00;;;9.30;99.40;;;;;;4997540;28;20050;-72
2024/03/29 07:22:52;;;;;;;1.73;0.77;;;9.20;99.60;;;;;;4981488;28;20124;-72
2024/03/29 07:25:18;;;;;;;2.22;1.25;;;9.20;99.70;;;;;;4997324;28;20050;-72
2024/03/29 07:27:45;;;;;;;2.33;0.73;;;9.10;99.70;;;;;;4981470;28;20088;-71
2024/03/29 07:30:12;;;;;;;1.40;1.30;;;9.00;99.90;;;;;;4997425;28;20042;-72
2024/03/29 07:32:38;;;;;;;1.88;1.20;;;9.00;99.90;;;;;;5013900;28;20112;-72
2024/03/29 07:35:04;;;;;;;1.23;0.95;;;8.90;99.90;;;;;;5013495;28;20056;-72
2024/03/29 07:37:30;;;;;;;1.20;0.60;;;8.90;99.90;;;;;;4997286;28;20046;-72
2024/03/29 07:39:56;;;;;;;1.98;0.70;;;8.90;99.90;;;;;;4997356;28;20053;-72
2024/03/29 07:42:22;;;;;;;1.92;0.75;;;8.90;99.90;;;;;;4981143;28;20050;-73
2024/03/29 07:44:48;;;;;;;1.17;1.00;;;8.90;99.90;;;;;;4997030;28;20062;-72
2024/03/29 07:47:14;;;;;;;2.78;1.48;;;8.80;99.90;;;;;;4996941;28;20044;-72
2024/03/29 07:49:41;;;;;;;2.50;1.40;;;8.80;99.90;;;;;;5013614;28;20038;-72
2024/03/29 07:52:08;;;;;;;3.45;1.10;;;8.80;99.90;;;;;;5013688;28;20057;-72
2024/03/29 07:54:35;;;;;;;1.42;1.33;;;8.80;99.90;;;;;;5013242;28;20053;-72
2024/03/29 07:57:01;;;;;;;1.35;0.75;;;8.90;99.90;;;;;;5013530;28;20061;-72
2024/03/29 07:59:28;;;;;;;2.53;1.20;;;8.90;99.90;;;;;;5013178;28;20103;-72
2024/03/29 08:01:55;;;;;;;1.38;1.20;;;9.00;99.90;;;;;;4997079;28;20046;-72
2024/03/29 08:04:21;;;;;;;1.40;1.30;;;9.10;99.90;;;;;;4996591;28;20038;-72
2024/03/29 08:06:47;;;;;;;2.17;1.27;;;9.10;99.90;;;;;;5012723;28;20124;-72
2024/03/29 08:09:14;;;;;;;1.00;0.88;;;9.30;99.90;;;;;;4996621;28;20124;-72
2024/03/29 08:11:40;;;;;;;1.95;0.70;;;9.20;99.90;;;;;;5013193;28;20042;-72
2024/03/29 08:14:07;;;;;;;2.53;1.73;;;9.20;99.90;;;;;;4996769;28;20046;-72
2024/03/29 08:16:33;;;;;;;2.03;0.63;;;9.20;99.90;;;;;;5012841;28;20099;-72
2024/03/29 08:18:59;;;;;;;1.65;1.52;;;9.20;99.90;;;;;;4996737;28;20046;-73
2024/03/29 08:21:27;;;;;;;1.25;1.23;;;9.20;99.90;;;;;;5012828;28;20049;-72
2024/03/29 08:23:55;;;;;;;1.20;1.17;;;9.20;99.90;;;;;;5012812;28;20108;-72
2024/03/29 08:26:21;;;;;;;1.80;1.70;;;9.20;99.90;;;;;;4979937;28;20048;-72
2024/03/29 08:28:47;;;;;;;1.80;1.48;;;9.20;99.90;;;;;;5013081;28;20037;-72
2024/03/29 08:31:13;;;;;;;2.40;0.90;;;9.10;99.90;;;;;;4996343;28;20407;-72
2024/03/29 08:33:39;;;;;;;1.20;1.10;;;9.00;99.90;;;;;;5012494;28;20048;-72
2024/03/29 08:36:07;;;;;;;2.80;1.60;;;9.00;99.90;;;;;;4996171;28;20415;-72
2024/03/29 08:38:34;;;;;;;2.65;1.70;;;9.00;99.90;;;;;;5012447;28;20037;-72
2024/03/29 08:41:01;;;;;;;1.95;1.77;;;9.00;99.90;;;;;;5012481;28;20042;-72
2024/03/29 08:43:27;;;;;;;1.98;1.77;;;8.90;99.90;;;;;;5012359;28;20038;-73
2024/03/29 08:45:53;;;;;;;2.20;1.98;;;8.90;99.90;;;;;;5012466;28;20073;-73
2024/03/29 08:48:19;;;;;;;2.05;1.95;;;8.90;99.90;;;;;;5012285;28;20044;-72
2024/03/29 08:50:46;;;;;;;2.35;2.15;;;8.90;99.90;;;;;;4996300;28;20080;-72
2024/03/29 08:53:12;;;;;;;1.95;1.33;;;8.90;99.90;;;;;;4995971;28;20452;-72
2024/03/29 08:55:40;;;;;;;1.55;1.15;;;8.90;99.90;;;;;;5012311;28;20500;-72
2024/03/29 08:58:06;;;;;;;1.40;1.30;;;9.00;99.90;;;;;;5012400;28;20037;-73
2024/03/29 09:00:32;;;;;;;1.75;1.65;;;9.00;99.90;;;;;;4995803;28;20046;-73
2024/03/29 09:02:59;;;;;;;1.58;1.48;;;8.90;99.90;;;;;;5012132;28;20054;-72
2024/03/29 09:05:29;;;;;;;4.03;2.45;;;8.90;99.90;;;;;;4995473;28;20511;-73
2024/03/29 09:07:56;;;;;;;2.13;1.48;;;8.80;99.90;;;;;;5012146;28;20030;-73
2024/03/29 09:10:26;;;;;;;3.42;3.08;;;8.80;99.90;;;;;;4995547;28;20033;-73
2024/03/29 09:12:52;;;;;;;1.40;1.30;;;8.70;99.90;;;;;;5012310;28;20111;-72
2024/03/29 09:15:19;;;;;;;1.08;0.98;;;8.60;99.90;;;;;;4995609;28;20050;-73
2024/03/29 09:17:46;;;;;;;1.75;1.10;;;8.60;99.90;;;;;;4995442;28;20084;-72
2024/03/29 09:20:12;;;;;;;1.70;1.40;;;8.60;99.90;;;;;;4979246;28;20060;-72
2024/03/29 09:22:39;;;;;;;3.45;1.40;;;8.60;99.90;;;;;;4995322;28;20045;-72
2024/03/29 09:25:05;;;;;;;1.00;0.90;;;8.70;99.90;;;;;;5011977;28;20391;-72
2024/03/29 09:27:36;;;;;;;2.08;1.92;;;8.70;99.90;;;;;;5011724;28;20061;-73
2024/03/29 09:30:05;;;;;;;2.15;1.38;;;8.80;99.90;;;;;;5011857;28;20048;-72
2024/03/29 09:32:31;;;;;;;1.00;1.00;;;8.90;99.90;;;;;;4995152;28;20112;-73
2024/03/29 09:34:57;;;;;;;1.15;0.90;;;9.00;99.90;;;;;;5011662;28;20415;-72
2024/03/29 09:37:23;;;;;;;1.35;0.82;;;9.10;99.90;;;;;;4995301;28;20411;-73
2024/03/29 09:39:49;;;;;;;2.25;1.60;;;9.20;99.90;;;;;;5011690;28;20133;-73
2024/03/29 09:42:16;;;;;;;2.20;1.33;;;9.30;99.90;;;;;;4978980;28;20065;-73
2024/03/29 09:44:45;;;;;;;2.53;1.02;;;9.40;99.90;;;;;;4994870;28;20057;-73
2024/03/29 09:47:17;;;;;;;1.88;0.90;;;9.60;99.90;;;;;;4978963;28;20042;-72
2024/03/29 09:49:47;;;;;;;1.45;1.35;;;9.80;99.90;;;;;;4978720;28;20076;-72
2024/03/29 09:52:14;;;;;;;2.85;1.75;;;9.90;99.90;;;;;;4995090;28;20053;-72
2024/03/29 09:54:40;;;;;;;2.28;1.05;;;10.00;99.90;;;;;;4994923;28;20454;-73
2024/03/29 09:57:06;;;;;;;1.75;1.30;;;9.90;99.90;;;;;;4994994;28;20050;-73
2024/03/29 09:59:34;;;;;;;3.78;1.52;;;9.90;99.90;;;;;;5011217;28;20050;-73
2024/03/29 10:02:10;;;;;;;4.03;1.40;;;10.00;99.90;;;;;;4995061;28;20045;-72
2024/03/29 10:04:37;;;;;;;3.28;1.33;;;10.10;99.90;;;;;;4978557;28;20057;-73
2024/03/29 10:07:04;;;;;;;2.40;1.00;;;10.20;99.90;;;;;;5011375;28;20042;-73
2024/03/29 10:09:32;;;;;;;1.27;1.13;;;10.30;99.90;;;;;;5011188;28;20042;-73
2024/03/29 10:11:58;;;;;;;1.15;1.00;;;10.40;99.90;;;;;;4978777;28;20053;-73
2024/03/29 10:14:24;;;;;;;2.17;1.35;;;10.40;99.90;;;;;;5011299;28;20038;-73
2024/03/29 10:16:53;;;;;;;1.35;0.93;;;10.40;99.90;;;;;;5011149;28;20033;-72
2024/03/29 10:19:21;;;;;;;1.67;1.40;;;10.50;99.90;;;;;;5011579;28;20041;-73
2024/03/29 10:21:47;;;;;;;2.78;0.77;;;10.50;99.90;;;;;;5011232;28;20089;-73
2024/03/29 10:24:15;;;;;;;1.35;1.25;;;10.60;99.90;;;;;;5011331;28;20061;-73
2024/03/29 10:26:42;;;;;;;0.90;0.90;;;10.70;99.90;;;;;;4994507;28;20042;-73
2024/03/29 10:29:08;;;;;;;3.30;1.70;;;10.80;99.90;;;;;;4997034;28;20497;-73
2024/03/29 10:31:36;;;;;;;1.92;0.90;;;11.10;99.90;;;;;;5014824;28;20034;-73
2024/03/29 10:34:05;;;;;;;0.82;0.82;;;11.50;99.90;;;;;;4998700;28;20049;-73
2024/03/29 10:36:35;;;;;;;2.58;0.95;;;11.80;99.90;;;;;;4998670;28;20060;-73
2024/03/29 10:39:13;;;;;;;1.40;0.60;;;12.00;99.90;;;;;;4998609;28;20056;-73
2024/03/29 10:41:44;;;;;;;1.23;1.00;;;12.20;99.90;;;;;;4998633;28;20057;-73
2024/03/29 10:44:14;;;;;;;1.20;0.88;;;12.50;99.90;;;;;;4998758;28;20092;-72
2024/03/29 10:46:47;;;;;;;0.90;0.90;;;12.50;99.90;;;;;;5014712;28;20486;-72
2024/03/29 10:49:16;;;;;;;1.42;0.93;;;12.40;99.90;;;;;;5014913;28;20439;-72
2024/03/29 10:51:43;;;;;;;1.05;0.82;;;12.40;99.90;;;;;;5014815;28;20092;-73
2024/03/29 10:54:10;;;;;;;2.15;1.92;;;12.30;99.90;;;;;;5014981;28;20042;-73
2024/03/29 10:56:37;;;;;;;2.15;1.63;;;12.30;99.90;;;;;;4998148;28;20404;-73
2024/03/29 10:59:18;;;;;;;2.05;1.35;;;12.20;99.90;;;;;;4998306;28;20053;-73
2024/03/29 11:01:47;;;;;;;1.35;0.75;;;12.20;99.90;;;;;;4998354;28;20042;-73
2024/03/29 11:04:22;;;;;;;1.35;1.23;;;12.20;99.90;;;;;;5014096;28;20045;-72
2024/03/29 11:06:51;;;;;;;1.20;0.98;;;12.20;99.90;;;;;;4998040;28;20064;-73
2024/03/29 11:09:20;;;;;;;1.15;0.80;;;12.40;99.90;;;;;;5014389;28;20488;-73
2024/03/29 11:11:50;;;;;;;1.83;1.70;;;12.70;99.90;;;;;;5014168;28;20049;-72
2024/03/29 11:14:26;;;;;;;1.02;0.93;;;13.40;98.20;;;;;;5014423;28;20037;-72
2024/03/29 11:16:57;;;;;;;2.65;1.50;;;14.10;97.70;;;;;;5014062;28;20038;-73
2024/03/29 11:19:23;;;;;;;2.25;1.20;;;15.00;96.00;;;;;;4998148;28;20514;-73
2024/03/29 11:21:50;;;;;;;1.40;1.00;;;15.60;93.80;;;;;;5013943;28;20099;-72
2024/03/29 11:24:22;;;;;;;1.42;1.33;;;16.30;95.20;;;;;;4997753;28;20050;-73
2024/03/29 11:26:47;;;;;;;2.28;1.40;;;17.10;94.00;;;;;;4997623;28;20396;-72
2024/03/29 11:29:21;;;;;;;2.13;0.85;;;17.10;92.20;;;;;;5014093;28;20410;-73
2024/03/29 11:31:51;;;;;;;2.55;1.15;;;16.90;91.70;;;;;;4997447;28;20050;-73
2024/03/29 11:34:20;;;;;;;4.15;2.15;;;16.60;91.60;;;;;;5013996;28;20081;-72
2024/03/29 11:36:46;;;;;;;3.05;2.60;;;16.20;89.80;;;;;;5013807;28;20518;-72
2024/03/29 11:39:23;;;;;;;2.72;2.42;;;15.80;91.20;;;;;;5013473;28;20045;-72
2024/03/29 11:41:50;;;;;;;3.83;3.17;;;15.60;91.20;;;;;;5013044;28;20049;-73
2024/03/29 11:44:16;;;;;;;3.42;2.92;;;15.40;90.50;;;;;;5013779;28;20065;-73
2024/03/29 11:46:46;;;;;;;3.35;2.63;;;15.20;91.50;;;;;;4997196;28;20116;-73
2024/03/29 11:49:12;;;;;;;3.88;3.03;;;15.20;91.60;;;;;;5013723;28;20046;-73
2024/03/29 11:51:38;;;;;;;2.42;1.90;;;15.10;92.10;;;;;;5013674;28;20041;-73
2024/03/29 11:54:04;;;;;;;3.00;2.58;;;14.70;92.50;;;;;;4996899;28;20112;-73
2024/03/29 11:56:30;;;;;;;4.38;3.55;;;14.40;92.50;;;;;;5013544;28;20053;-73
2024/03/29 11:58:59;;;;;;;4.95;4.65;;;14.30;92.50;;;;;;5013090;28;20088;-72
2024/03/29 12:01:26;;;;;;;3.45;2.33;;;14.20;92.50;;;;;;4997002;28;20056;-72
2024/03/29 12:03:52;;;;;;;2.72;2.53;;;14.30;93.20;;;;;;5013219;28;20038;-72
2024/03/29 12:06:19;;;;;;;3.50;2.80;;;14.50;92.00;;;;;;4996934;28;20046;-73
2024/03/29 12:08:45;;;;;;;3.42;2.22;;;14.80;92.70;;;;;;5013072;28;20495;-72
2024/03/29 12:11:11;;;;;;;3.33;3.05;;;14.80;92.50;;;;;;5013337;28;20049;-73
2024/03/29 12:13:37;;;;;;;4.30;2.70;;;15.10;92.20;;;;;;5013265;28;20034;-72
2024/03/29 12:16:04;;;;;;;2.78;2.35;;;15.50;90.90;;;;;;4980433;28;20456;-72
2024/03/29 12:18:31;;;;;;;2.83;2.42;;;15.70;91.50;;;;;;5013136;28;20050;-73
2024/03/29 12:20:58;;;;;;;3.45;2.30;;;16.00;90.90;;;;;;5012731;28;20038;-73
2024/03/29 12:23:24;;;;;;;2.63;2.42;;;16.40;90.20;;;;;;4996596;28;20056;-72
2024/03/29 12:25:55;;;;;;;3.33;2.80;;;16.20;89.00;;;;;;4980080;28;20045;-72
2024/03/29 12:28:21;;;;;;;3.55;2.10;;;15.80;90.10;;;;;;4996384;28;20038;-72
2024/03/29 12:30:49;;;;;;;2.38;2.17;;;15.40;91.20;;;;;;5012812;28;20069;-72
2024/03/29 12:33:19;;;;;;;2.38;1.65;;;15.00;90.90;;;;;;5012763;28;20045;-72
2024/03/29 12:35:48;;;;;;;;;;;14.90;91.10;;;;;;5013210;28;20069;-73
2024/03/29 12:38:16;;;;;;;2.67;2.17;;;14.90;90.70;;;;;;5012728;28;19928;-73
2024/03/29 12:40:44;;;;;;;4.00;2.88;;;14.70;91.10;;;;;;5012764;28;20046;-72
2024/03/29 12:43:11;;;;;;;2.50;2.20;;;14.60;91.20;;;;;;5012347;28;20145;-72
2024/03/29 12:45:39;;;;;;;2.15;1.95;;;14.50;91.70;;;;;;5012590;28;20034;-72
2024/03/29 12:48:14;;;;;;;3.20;3.00;;;14.70;92.40;;;;;;4996290;28;20049;-72
2024/03/29 12:50:42;;;;;;;2.67;2.20;;;15.20;90.80;;;;;;4979926;28;20082;-72
2024/03/29 12:53:10;;;;;;;2.97;2.67;;;15.60;90.70;;;;;;4995869;28;20088;-73
2024/03/29 12:55:38;;;;;;;2.42;2.22;;;16.00;90.70;;;;;;5012467;28;20045;-73
2024/03/29 12:58:09;;;;;;;2.47;2.28;;;16.30;89.30;;;;;;5012107;28;20050;-72
2024/03/29 13:00:36;;;;;;;2.22;1.90;;;16.40;89.70;;;;;;4996312;28;20038;-73
2024/03/29 13:03:02;;;;;;;2.92;2.72;;;16.20;89.30;;;;;;4995680;28;20402;-72
2024/03/29 13:05:40;;;;;;;3.00;2.70;;;15.90;89.50;;;;;;4996005;28;20053;-72